Aporé Airstrip

BR-0035 · Mato Grosso do Sul, Brazil

METAR history BR-0035 · Aporé Airstrip

Below you see METARs of the last few days. Select a year to browse through older METARs, from the year 2007 onwards.

June 24, 2024

Time Code Weather Temp. Visibility Ceiling Wind METAR/SPECI
07:00
V
20 °C 10 km+ - 030° 030° 4 kt METAR SBSR 241100Z 03004KT CAVOK 20/12 Q1017

June 23, 2024

Time Code Weather Temp. Visibility Ceiling Wind METAR/SPECI
18:00
V
27 °C 10 km+ - 350° 350° 2 kt METAR SBAU 232200Z 35002KT CAVOK 27/12 Q1014
10:00
V
29 °C 10 km+ - 010° 010° 6 kt METAR SBAU 231400Z 01006KT CAVOK 29/12 Q1017
09:00
V
27 °C 10 km+ - 360° 360° 8 kt METAR SBAU 231300Z 36008KT CAVOK 27/13 Q1017

June 22, 2024

Time Code Weather Temp. Visibility Ceiling Wind METAR/SPECI
09:00
V
23 °C 10 km+ - 090° 090° 6 kt METAR SBAU 221300Z 09006KT 9999 SCT020 23/13 Q1017
Report a change